Terminal Aerodrome Forecast
Issued by NWS Cleveland, OH

Home | Current Version | Previous Version | Graphics & Text | Print | Product List | Glossary On
Versions: 1 2 3 4 5 6 7 8 9 10 11 12 13 14 15 16 17 18 19
772
FTUS41 KCLE 281909 AAA
TAFMFD
TAF AMD
KMFD 281909Z 2819/2918 24003KT P6SM SCT040
     FM282000 26005KT P6SM BKN040
      TEMPO 2822/2824 6SM -SHRA
     FM290000 35005KT P6SM BKN100
     FM290800 03003KT 4SM BR SCT100
     FM291400 07008KT P6SM SCT050=

USA.gov is the U.S. government's official web portal to all federal, state and local government web resources and services.